sensor_id;sensor_type;location;lat;lon;timestamp;pressure;altitude;pressure_sealevel;temperature;humidity
32081;BME280;18593;51.426;7.030;2023-02-20T00:00:52;101561.66;;;9.34;62.88
32081;BME280;18593;51.426;7.030;2023-02-20T00:03:19;101565.16;;;9.34;62.51
32081;BME280;18593;51.426;7.030;2023-02-20T00:05:46;101569.34;;;9.28;62.67
32081;BME280;18593;51.426;7.030;2023-02-20T00:08:14;101568.97;;;9.32;62.64
32081;BME280;18593;51.426;7.030;2023-02-20T00:10:41;101565.34;;;9.33;62.82
32081;BME280;18593;51.426;7.030;2023-02-20T00:13:10;101562.81;;;9.31;62.62
32081;BME280;18593;51.426;7.030;2023-02-20T00:15:37;101549.72;;;9.29;62.89
32081;BME280;18593;51.426;7.030;2023-02-20T00:18:05;101541.72;;;9.29;63.10
32081;BME280;18593;51.426;7.030;2023-02-20T00:20:32;101541.06;;;9.27;63.09
32081;BME280;18593;51.426;7.030;2023-02-20T00:23:01;101540.91;;;9.29;63.18
32081;BME280;18593;51.426;7.030;2023-02-20T00:25:28;101541.19;;;9.34;62.97
32081;BME280;18593;51.426;7.030;2023-02-20T00:27:56;101544.34;;;9.38;63.04
32081;BME280;18593;51.426;7.030;2023-02-20T00:30:24;101549.00;;;9.36;63.24
32081;BME280;18593;51.426;7.030;2023-02-20T00:32:53;101544.38;;;9.29;63.21
32081;BME280;18593;51.426;7.030;2023-02-20T00:35:21;101537.03;;;9.32;63.49
32081;BME280;18593;51.426;7.030;2023-02-20T00:37:48;101540.19;;;9.35;63.43
32081;BME280;18593;51.426;7.030;2023-02-20T00:40:17;101532.88;;;9.37;63.46
32081;BME280;18593;51.426;7.030;2023-02-20T00:42:44;101526.69;;;9.37;63.57
32081;BME280;18593;51.426;7.030;2023-02-20T00:45:13;101522.06;;;9.31;63.86
32081;BME280;18593;51.426;7.030;2023-02-20T00:47:42;101516.44;;;9.25;63.71
32081;BME280;18593;51.426;7.030;2023-02-20T00:50:09;101511.13;;;9.25;64.20
32081;BME280;18593;51.426;7.030;2023-02-20T00:52:36;101510.13;;;9.26;64.40
32081;BME280;18593;51.426;7.030;2023-02-20T00:55:04;101510.78;;;9.28;64.25
32081;BME280;18593;51.426;7.030;2023-02-20T00:57:31;101509.28;;;9.26;64.40
32081;BME280;18593;51.426;7.030;2023-02-20T00:59:58;101505.47;;;9.28;64.58
32081;BME280;18593;51.426;7.030;2023-02-20T01:02:25;101497.34;;;9.22;64.44
32081;BME280;18593;51.426;7.030;2023-02-20T01:04:54;101491.84;;;9.23;64.94
32081;BME280;18593;51.426;7.030;2023-02-20T01:07:21;101491.97;;;9.30;64.44
32081;BME280;18593;51.426;7.030;2023-02-20T01:09:48;101491.13;;;9.29;64.88
32081;BME280;18593;51.426;7.030;2023-02-20T01:12:15;101480.97;;;9.33;64.65
32081;BME280;18593;51.426;7.030;2023-02-20T01:14:42;101473.16;;;9.32;64.51
32081;BME280;18593;51.426;7.030;2023-02-20T01:17:09;101474.53;;;9.27;64.77
32081;BME280;18593;51.426;7.030;2023-02-20T01:19:37;101470.56;;;9.23;64.58
32081;BME280;18593;51.426;7.030;2023-02-20T01:22:06;101472.09;;;9.18;64.84
32081;BME280;18593;51.426;7.030;2023-02-20T01:24:33;101462.00;;;9.13;65.00
32081;BME280;18593;51.426;7.030;2023-02-20T01:27:00;101459.31;;;9.13;65.31
32081;BME280;18593;51.426;7.030;2023-02-20T01:29:29;101469.06;;;9.21;65.08
32081;BME280;18593;51.426;7.030;2023-02-20T01:31:58;101463.69;;;9.06;65.25
32081;BME280;18593;51.426;7.030;2023-02-20T01:34:25;101449.91;;;9.02;65.67
32081;BME280;18593;51.426;7.030;2023-02-20T01:36:54;101461.31;;;9.11;65.53
32081;BME280;18593;51.426;7.030;2023-02-20T01:39:24;101446.19;;;9.12;65.66
32081;BME280;18593;51.426;7.030;2023-02-20T01:41:54;101457.50;;;9.14;65.16
32081;BME280;18593;51.426;7.030;2023-02-20T01:44:24;101445.28;;;8.96;65.47
32081;BME280;18593;51.426;7.030;2023-02-20T01:46:52;101449.31;;;8.92;65.72
32081;BME280;18593;51.426;7.030;2023-02-20T01:49:27;101443.75;;;9.02;65.91
32081;BME280;18593;51.426;7.030;2023-02-20T01:52:00;101446.72;;;9.07;65.65
32081;BME280;18593;51.426;7.030;2023-02-20T01:54:30;101442.66;;;9.19;65.46
32081;BME280;18593;51.426;7.030;2023-02-20T01:56:59;101429.63;;;9.24;65.10
32081;BME280;18593;51.426;7.030;2023-02-20T01:59:30;101433.94;;;9.25;65.00
32081;BME280;18593;51.426;7.030;2023-02-20T02:01:59;101439.16;;;9.19;64.83
32081;BME280;18593;51.426;7.030;2023-02-20T02:04:26;101437.31;;;9.19;64.79
32081;BME280;18593;51.426;7.030;2023-02-20T02:06:53;101437.84;;;9.15;65.31
32081;BME280;18593;51.426;7.030;2023-02-20T02:09:26;101430.34;;;9.18;64.99
32081;BME280;18593;51.426;7.030;2023-02-20T02:11:56;101424.84;;;9.20;64.86
32081;BME280;18593;51.426;7.030;2023-02-20T02:14:23;101415.44;;;9.09;65.03
32081;BME280;18593;51.426;7.030;2023-02-20T02:17:02;101414.38;;;8.95;64.94
32081;BME280;18593;51.426;7.030;2023-02-20T02:19:57;101409.88;;;8.96;65.50
32081;BME280;18593;51.426;7.030;2023-02-20T02:25:39;101399.81;;;9.06;65.42
32081;BME280;18593;51.426;7.030;2023-02-20T02:34:35;101375.69;;;9.08;65.02
32081;BME280;18593;51.426;7.030;2023-02-20T02:37:11;101371.81;;;8.95;64.77
32081;BME280;18593;51.426;7.030;2023-02-20T02:39:43;101361.06;;;8.89;65.11
32081;BME280;18593;51.426;7.030;2023-02-20T02:42:15;101366.19;;;8.90;65.40
32081;BME280;18593;51.426;7.030;2023-02-20T02:44:46;101370.03;;;8.88;65.41
32081;BME280;18593;51.426;7.030;2023-02-20T02:47:21;101373.78;;;8.79;65.58
32081;BME280;18593;51.426;7.030;2023-02-20T02:49:52;101367.78;;;8.76;65.32
32081;BME280;18593;51.426;7.030;2023-02-20T02:52:24;101369.09;;;8.81;65.47
32081;BME280;18593;51.426;7.030;2023-02-20T02:55:11;101371.56;;;8.82;65.59
32081;BME280;18593;51.426;7.030;2023-02-20T02:57:39;101370.03;;;8.88;65.41
32081;BME280;18593;51.426;7.030;2023-02-20T03:00:09;101368.50;;;8.93;65.17
32081;BME280;18593;51.426;7.030;2023-02-20T03:02:43;101358.69;;;8.94;64.37
32081;BME280;18593;51.426;7.030;2023-02-20T03:05:14;101347.63;;;8.82;65.03
32081;BME280;18593;51.426;7.030;2023-02-20T03:07:47;101331.84;;;8.81;65.26
32081;BME280;18593;51.426;7.030;2023-02-20T03:10:19;101344.16;;;8.82;65.25
32081;BME280;18593;51.426;7.030;2023-02-20T03:12:59;101340.47;;;8.83;65.43
32081;BME280;18593;51.426;7.030;2023-02-20T03:15:33;101340.03;;;8.79;65.31
32081;BME280;18593;51.426;7.030;2023-02-20T03:18:10;101348.53;;;8.74;65.47
32081;BME280;18593;51.426;7.030;2023-02-20T03:20:43;101342.22;;;8.75;65.45
32081;BME280;18593;51.426;7.030;2023-02-20T03:23:13;101339.53;;;8.75;65.39
32081;BME280;18593;51.426;7.030;2023-02-20T03:25:43;101345.59;;;8.69;65.70
32081;BME280;18593;51.426;7.030;2023-02-20T03:28:14;101340.59;;;8.66;65.99
32081;BME280;18593;51.426;7.030;2023-02-20T03:30:44;101342.44;;;8.66;65.64
32081;BME280;18593;51.426;7.030;2023-02-20T03:33:15;101337.16;;;8.58;66.24
32081;BME280;18593;51.426;7.030;2023-02-20T03:36:03;101340.66;;;8.58;66.41
32081;BME280;18593;51.426;7.030;2023-02-20T03:38:59;101330.31;;;8.63;66.14
32081;BME280;18593;51.426;7.030;2023-02-20T03:41:47;101326.16;;;8.69;66.07
32081;BME280;18593;51.426;7.030;2023-02-20T03:44:33;101329.63;;;8.69;65.94
32081;BME280;18593;51.426;7.030;2023-02-20T03:47:02;101330.75;;;8.75;65.89
32081;BME280;18593;51.426;7.030;2023-02-20T03:49:31;101319.19;;;8.83;65.61
32081;BME280;18593;51.426;7.030;2023-02-20T03:52:01;101310.69;;;8.87;65.17
32081;BME280;18593;51.426;7.030;2023-02-20T03:54:38;101314.16;;;8.88;65.38
32081;BME280;18593;51.426;7.030;2023-02-20T03:57:09;101314.09;;;8.96;65.03
32081;BME280;18593;51.426;7.030;2023-02-20T03:59:41;101316.03;;;9.02;64.67
32081;BME280;18593;51.426;7.030;2023-02-20T04:02:13;101314.69;;;9.06;64.11
32081;BME280;18593;51.426;7.030;2023-02-20T04:04:44;101308.44;;;8.99;64.10
32081;BME280;18593;51.426;7.030;2023-02-20T04:07:15;101308.97;;;8.94;64.03
32081;BME280;18593;51.426;7.030;2023-02-20T04:09:46;101309.69;;;8.88;64.74
32081;BME280;18593;51.426;7.030;2023-02-20T04:12:16;101315.41;;;9.00;64.38
32081;BME280;18593;51.426;7.030;2023-02-20T04:14:44;101307.53;;;9.07;63.92
32081;BME280;18593;51.426;7.030;2023-02-20T04:17:15;101303.22;;;9.06;63.75
32081;BME280;18593;51.426;7.030;2023-02-20T04:19:44;101305.09;;;8.97;64.00
32081;BME280;18593;51.426;7.030;2023-02-20T04:22:14;101305.84;;;8.91;64.20
32081;BME280;18593;51.426;7.030;2023-02-20T04:24:48;101308.50;;;8.91;64.31
32081;BME280;18593;51.426;7.030;2023-02-20T04:27:17;101301.06;;;8.86;64.29
32081;BME280;18593;51.426;7.030;2023-02-20T04:29:49;101298.50;;;8.93;64.33
32081;BME280;18593;51.426;7.030;2023-02-20T04:32:17;101295.84;;;8.93;64.17
32081;BME280;18593;51.426;7.030;2023-02-20T04:34:44;101303.97;;;8.76;64.31
32081;BME280;18593;51.426;7.030;2023-02-20T04:37:14;101299.22;;;8.87;64.48
32081;BME280;18593;51.426;7.030;2023-02-20T04:39:42;101297.22;;;8.89;63.95
32081;BME280;18593;51.426;7.030;2023-02-20T04:42:11;101308.41;;;8.84;64.06
32081;BME280;18593;51.426;7.030;2023-02-20T04:44:39;101305.00;;;8.90;63.98
32081;BME280;18593;51.426;7.030;2023-02-20T04:47:13;101305.75;;;8.84;64.21
32081;BME280;18593;51.426;7.030;2023-02-20T04:49:40;101311.06;;;8.84;64.18
32081;BME280;18593;51.426;7.030;2023-02-20T04:52:10;101298.94;;;8.82;64.20
32081;BME280;18593;51.426;7.030;2023-02-20T04:54:37;101303.91;;;8.85;64.36
32081;BME280;18593;51.426;7.030;2023-02-20T04:57:05;101295.91;;;8.85;64.37
32081;BME280;18593;51.426;7.030;2023-02-20T04:59:36;101288.66;;;8.79;64.36
32081;BME280;18593;51.426;7.030;2023-02-20T05:02:04;101287.19;;;8.76;64.12
32081;BME280;18593;51.426;7.030;2023-02-20T05:04:31;101281.09;;;8.67;64.83
32081;BME280;18593;51.426;7.030;2023-02-20T05:06:58;101273.41;;;8.72;64.68
32081;BME280;18593;51.426;7.030;2023-02-20T05:09:25;101274.91;;;8.75;64.80
32081;BME280;18593;51.426;7.030;2023-02-20T05:11:52;101273.69;;;8.77;64.49
32081;BME280;18593;51.426;7.030;2023-02-20T05:14:20;101275.38;;;8.79;64.48
32081;BME280;18593;51.426;7.030;2023-02-20T05:16:49;101273.63;;;8.86;64.40
32081;BME280;18593;51.426;7.030;2023-02-20T05:19:16;101270.25;;;8.92;64.47
32081;BME280;18593;51.426;7.030;2023-02-20T05:21:44;101262.53;;;8.97;63.85
32081;BME280;18593;51.426;7.030;2023-02-20T05:27:11;101256.41;;;9.11;63.33
32081;BME280;18593;51.426;7.030;2023-02-20T05:29:43;101267.06;;;9.11;63.37
32081;BME280;18593;51.426;7.030;2023-02-20T06:11:15;101261.38;;;8.99;64.11
32081;BME280;18593;51.426;7.030;2023-02-20T06:16:31;101244.59;;;8.99;64.11
32081;BME280;18593;51.426;7.030;2023-02-20T06:19:00;101264.00;;;8.85;64.86
32081;BME280;18593;51.426;7.030;2023-02-20T06:21:27;101263.91;;;8.93;64.97
32081;BME280;18593;51.426;7.030;2023-02-20T06:23:55;101266.56;;;8.93;64.74
32081;BME280;18593;51.426;7.030;2023-02-20T06:26:23;101277.94;;;8.87;64.95
32081;BME280;18593;51.426;7.030;2023-02-20T06:28:50;101271.50;;;8.81;65.07
32081;BME280;18593;51.426;7.030;2023-02-20T06:31:20;101278.66;;;8.81;65.58
32081;BME280;18593;51.426;7.030;2023-02-20T06:33:48;101283.41;;;8.70;65.61
32081;BME280;18593;51.426;7.030;2023-02-20T06:36:18;101297.28;;;8.58;66.00
32081;BME280;18593;51.426;7.030;2023-02-20T06:38:46;101312.13;;;8.52;66.33
32081;BME280;18593;51.426;7.030;2023-02-20T06:41:13;101299.88;;;8.43;66.67
32081;BME280;18593;51.426;7.030;2023-02-20T06:43:41;101312.22;;;8.36;67.23
32081;BME280;18593;51.426;7.030;2023-02-20T06:46:09;101309.50;;;8.44;67.12
32081;BME280;18593;51.426;7.030;2023-02-20T06:48:42;101296.50;;;8.49;66.54
32081;BME280;18593;51.426;7.030;2023-02-20T06:51:09;101312.53;;;8.41;67.05
32081;BME280;18593;51.426;7.030;2023-02-20T06:53:44;101328.50;;;8.33;67.21
32081;BME280;18593;51.426;7.030;2023-02-20T06:56:16;101323.69;;;8.36;67.23
32081;BME280;18593;51.426;7.030;2023-02-20T06:58:59;101325.00;;;8.32;67.47
32081;BME280;18593;51.426;7.030;2023-02-20T07:01:41;101318.88;;;8.40;67.68
32081;BME280;18593;51.426;7.030;2023-02-20T07:04:17;101319.34;;;8.35;67.51
32081;BME280;18593;51.426;7.030;2023-02-20T07:06:45;101312.88;;;8.38;67.45
32081;BME280;18593;51.426;7.030;2023-02-20T07:09:13;101316.34;;;8.38;67.21
32081;BME280;18593;51.426;7.030;2023-02-20T07:11:44;101315.59;;;8.21;67.61
32081;BME280;18593;51.426;7.030;2023-02-20T07:14:16;101311.25;;;8.29;67.58
32081;BME280;18593;51.426;7.030;2023-02-20T07:17:01;101308.06;;;8.33;67.29
32081;BME280;18593;51.426;7.030;2023-02-20T07:19:28;101314.56;;;8.31;68.02
32081;BME280;18593;51.426;7.030;2023-02-20T07:21:55;101319.91;;;8.22;67.56
32081;BME280;18593;51.426;7.030;2023-02-20T07:24:23;101315.94;;;8.18;67.98
32081;BME280;18593;51.426;7.030;2023-02-20T07:26:50;101315.13;;;8.18;67.59
32081;BME280;18593;51.426;7.030;2023-02-20T07:29:19;101322.97;;;8.11;68.07
32081;BME280;18593;51.426;7.030;2023-02-20T07:31:46;101320.88;;;7.98;68.53
32081;BME280;18593;51.426;7.030;2023-02-20T07:34:13;101319.19;;;8.06;68.30
32081;BME280;18593;51.426;7.030;2023-02-20T07:36:41;101311.06;;;7.99;68.63
32081;BME280;18593;51.426;7.030;2023-02-20T07:40:06;101309.50;;;7.82;69.46
32081;BME280;18593;51.426;7.030;2023-02-20T07:46:18;101324.75;;;7.80;69.76
32081;BME280;18593;51.426;7.030;2023-02-20T07:49:33;101310.44;;;7.97;69.62
32081;BME280;18593;51.426;7.030;2023-02-20T07:52:07;101314.72;;;7.98;69.42
32081;BME280;18593;51.426;7.030;2023-02-20T07:54:54;101310.44;;;7.89;69.13
32081;BME280;18593;51.426;7.030;2023-02-20T07:57:23;101319.44;;;7.88;69.75
32081;BME280;18593;51.426;7.030;2023-02-20T07:59:50;101310.81;;;7.86;70.18
32081;BME280;18593;51.426;7.030;2023-02-20T08:02:19;101318.09;;;7.84;70.01
32081;BME280;18593;51.426;7.030;2023-02-20T08:04:46;101321.75;;;7.91;70.28
32081;BME280;18593;51.426;7.030;2023-02-20T08:07:15;101310.91;;;8.00;70.51
32081;BME280;18593;51.426;7.030;2023-02-20T08:09:45;101322.31;;;8.09;70.76
32081;BME280;18593;51.426;7.030;2023-02-20T08:12:13;101314.69;;;8.06;70.09
32081;BME280;18593;51.426;7.030;2023-02-20T08:14:42;101317.19;;;7.99;69.70
32081;BME280;18593;51.426;7.030;2023-02-20T08:17:09;101307.78;;;7.97;69.88
32081;BME280;18593;51.426;7.030;2023-02-20T08:19:38;101322.50;;;7.99;70.15
32081;BME280;18593;51.426;7.030;2023-02-20T08:22:05;101321.88;;;7.97;70.05
32081;BME280;18593;51.426;7.030;2023-02-20T08:24:32;101319.13;;;7.83;69.94
32081;BME280;18593;51.426;7.030;2023-02-20T08:26:59;101309.81;;;7.87;70.42
32081;BME280;18593;51.426;7.030;2023-02-20T08:29:27;101320.38;;;7.95;70.47
32081;BME280;18593;51.426;7.030;2023-02-20T08:31:54;101315.38;;;8.00;70.62
32081;BME280;18593;51.426;7.030;2023-02-20T08:34:21;101316.22;;;8.00;70.59
32081;BME280;18593;51.426;7.030;2023-02-20T08:36:53;101318.88;;;8.00;70.56
32081;BME280;18593;51.426;7.030;2023-02-20T08:39:22;101307.88;;;8.04;70.59
32081;BME280;18593;51.426;7.030;2023-02-20T08:41:51;101307.03;;;8.11;70.56
32081;BME280;18593;51.426;7.030;2023-02-20T08:44:18;101305.69;;;8.15;70.09
32081;BME280;18593;51.426;7.030;2023-02-20T08:46:46;101293.75;;;8.11;70.52
32081;BME280;18593;51.426;7.030;2023-02-20T08:49:13;101303.19;;;8.14;70.18
32081;BME280;18593;51.426;7.030;2023-02-20T08:51:43;101304.00;;;8.14;70.47
32081;BME280;18593;51.426;7.030;2023-02-20T08:54:12;101306.38;;;8.09;70.63
32081;BME280;18593;51.426;7.030;2023-02-20T08:56:39;101296.94;;;8.07;70.83
32081;BME280;18593;51.426;7.030;2023-02-20T08:59:07;101297.94;;;8.06;70.54
32081;BME280;18593;51.426;7.030;2023-02-20T09:01:34;101307.38;;;8.08;70.40
32081;BME280;18593;51.426;7.030;2023-02-20T09:04:01;101301.06;;;8.09;70.55
32081;BME280;18593;51.426;7.030;2023-02-20T09:06:28;101306.25;;;8.03;70.66
32081;BME280;18593;51.426;7.030;2023-02-20T09:08:55;101300.31;;;7.92;71.33
32081;BME280;18593;51.426;7.030;2023-02-20T09:11:24;101308.81;;;7.88;71.83
32081;BME280;18593;51.426;7.030;2023-02-20T09:13:54;101304.09;;;7.98;71.72
32081;BME280;18593;51.426;7.030;2023-02-20T09:16:22;101301.63;;;7.96;71.62
32081;BME280;18593;51.426;7.030;2023-02-20T09:18:51;101299.13;;;7.95;71.77
32081;BME280;18593;51.426;7.030;2023-02-20T09:23:57;101310.81;;;7.86;71.96
32081;BME280;18593;51.426;7.030;2023-02-20T09:26:25;101317.59;;;7.88;71.94
32081;BME280;18593;51.426;7.030;2023-02-20T09:28:52;101312.59;;;7.93;71.96
32081;BME280;18593;51.426;7.030;2023-02-20T09:31:19;101309.09;;;7.93;71.87
32081;BME280;18593;51.426;7.030;2023-02-20T09:33:46;101299.97;;;7.95;71.88
32081;BME280;18593;51.426;7.030;2023-02-20T09:36:13;101308.59;;;7.97;71.83
32081;BME280;18593;51.426;7.030;2023-02-20T09:38:40;101306.44;;;8.01;72.09
32081;BME280;18593;51.426;7.030;2023-02-20T09:41:10;101308.56;;;8.06;71.68
32081;BME280;18593;51.426;7.030;2023-02-20T09:43:48;101313.50;;;8.09;72.12
32081;BME280;18593;51.426;7.030;2023-02-20T09:46:17;101294.75;;;8.10;71.68
32081;BME280;18593;51.426;7.030;2023-02-20T09:48:54;101304.06;;;8.06;71.92
32081;BME280;18593;51.426;7.030;2023-02-20T09:51:25;101302.09;;;8.00;71.86
32081;BME280;18593;51.426;7.030;2023-02-20T09:53:55;101290.00;;;7.97;71.76
32081;BME280;18593;51.426;7.030;2023-02-20T09:56:26;101298.47;;;8.01;72.35
32081;BME280;18593;51.426;7.030;2023-02-20T09:58:57;101312.19;;;8.05;72.58
32081;BME280;18593;51.426;7.030;2023-02-20T10:01:26;101306.72;;;8.06;72.55
32081;BME280;18593;51.426;7.030;2023-02-20T10:03:55;101298.91;;;8.05;72.20
32081;BME280;18593;51.426;7.030;2023-02-20T10:06:24;101306.22;;;8.11;72.49
32081;BME280;18593;51.426;7.030;2023-02-20T10:08:52;101303.03;;;8.15;72.16
32081;BME280;18593;51.426;7.030;2023-02-20T10:11:28;101283.94;;;8.12;72.38
32081;BME280;18593;51.426;7.030;2023-02-20T10:14:06;101282.31;;;8.11;72.45
32081;BME280;18593;51.426;7.030;2023-02-20T10:16:38;101289.75;;;8.15;72.39
32081;BME280;18593;51.426;7.030;2023-02-20T10:19:12;101290.09;;;8.12;72.79
32081;BME280;18593;51.426;7.030;2023-02-20T10:22:01;101285.41;;;8.14;73.11
32081;BME280;18593;51.426;7.030;2023-02-20T10:24:42;101280.63;;;8.10;72.95
32081;BME280;18593;51.426;7.030;2023-02-20T10:27:18;101278.81;;;8.10;73.08
32081;BME280;18593;51.426;7.030;2023-02-20T10:29:51;101256.06;;;8.08;73.77
32081;BME280;18593;51.426;7.030;2023-02-20T10:32:20;101249.75;;;8.09;73.97
32081;BME280;18593;51.426;7.030;2023-02-20T10:34:53;101253.91;;;8.11;73.86
32081;BME280;18593;51.426;7.030;2023-02-20T10:37:23;101248.41;;;8.13;74.13
32081;BME280;18593;51.426;7.030;2023-02-20T10:39:53;101258.69;;;8.16;73.56
32081;BME280;18593;51.426;7.030;2023-02-20T10:42:23;101249.22;;;8.13;73.28
32081;BME280;18593;51.426;7.030;2023-02-20T10:44:57;101247.75;;;8.11;73.86
32081;BME280;18593;51.426;7.030;2023-02-20T10:47:28;101247.38;;;8.14;74.32
32081;BME280;18593;51.426;7.030;2023-02-20T10:49:57;101251.69;;;8.15;74.13
32081;BME280;18593;51.426;7.030;2023-02-20T10:52:28;101243.03;;;8.21;74.37
32081;BME280;18593;51.426;7.030;2023-02-20T10:55:00;101253.78;;;8.27;74.45
32081;BME280;18593;51.426;7.030;2023-02-20T10:57:32;101247.94;;;8.32;74.37
32081;BME280;18593;51.426;7.030;2023-02-20T11:00:03;101231.69;;;8.27;74.04
32081;BME280;18593;51.426;7.030;2023-02-20T11:02:35;101216.38;;;8.29;74.01
32081;BME280;18593;51.426;7.030;2023-02-20T11:05:06;101211.06;;;8.29;74.26
32081;BME280;18593;51.426;7.030;2023-02-20T11:07:34;101211.94;;;8.30;74.75
32081;BME280;18593;51.426;7.030;2023-02-20T11:10:01;101200.28;;;8.31;74.93
32081;BME280;18593;51.426;7.030;2023-02-20T11:12:29;101177.66;;;8.35;74.84
32081;BME280;18593;51.426;7.030;2023-02-20T11:14:59;101190.97;;;8.35;74.73
32081;BME280;18593;51.426;7.030;2023-02-20T11:17:28;101183.34;;;8.32;75.06
32081;BME280;18593;51.426;7.030;2023-02-20T11:19:56;101197.09;;;8.35;74.79
32081;BME280;18593;51.426;7.030;2023-02-20T11:22:40;101205.91;;;8.36;74.91
32081;BME280;18593;51.426;7.030;2023-02-20T11:25:16;101198.94;;;8.35;74.55
32081;BME280;18593;51.426;7.030;2023-02-20T11:27:44;101224.66;;;8.34;74.57
32081;BME280;18593;51.426;7.030;2023-02-20T11:30:27;101233.63;;;8.33;74.43
32081;BME280;18593;51.426;7.030;2023-02-20T11:33:03;101227.81;;;8.38;74.34
32081;BME280;18593;51.426;7.030;2023-02-20T11:35:35;101213.53;;;8.39;74.41
32081;BME280;18593;51.426;7.030;2023-02-20T11:38:18;101212.56;;;8.32;74.32
32081;BME280;18593;51.426;7.030;2023-02-20T11:41:00;101214.88;;;8.35;74.50
32081;BME280;18593;51.426;7.030;2023-02-20T11:43:30;101219.19;;;8.36;74.92
32081;BME280;18593;51.426;7.030;2023-02-20T11:46:06;101230.66;;;8.36;74.58
32081;BME280;18593;51.426;7.030;2023-02-20T11:48:35;101234.16;;;8.37;74.16
32081;BME280;18593;51.426;7.030;2023-02-20T11:51:02;101238.13;;;8.33;75.14
32081;BME280;18593;51.426;7.030;2023-02-20T11:53:31;101226.19;;;8.37;74.84
32081;BME280;18593;51.426;7.030;2023-02-20T11:56:17;101229.31;;;8.40;74.58
32081;BME280;18593;51.426;7.030;2023-02-20T11:58:45;101222.69;;;8.36;74.54
32081;BME280;18593;51.426;7.030;2023-02-20T12:01:27;101228.69;;;8.30;74.31
32081;BME280;18593;51.426;7.030;2023-02-20T12:03:57;101228.84;;;8.37;74.81
32081;BME280;18593;51.426;7.030;2023-02-20T12:06:38;101222.69;;;8.36;74.57
32081;BME280;18593;51.426;7.030;2023-02-20T12:09:10;101228.50;;;8.40;74.76
32081;BME280;18593;51.426;7.030;2023-02-20T12:11:38;101228.94;;;8.43;74.79
32081;BME280;18593;51.426;7.030;2023-02-20T12:14:09;101231.97;;;8.40;74.41
32081;BME280;18593;51.426;7.030;2023-02-20T12:16:49;101235.06;;;8.44;74.19
32081;BME280;18593;51.426;7.030;2023-02-20T12:19:23;101223.81;;;8.42;73.87
32081;BME280;18593;51.426;7.030;2023-02-20T12:21:58;101212.28;;;8.49;74.55
32081;BME280;18593;51.426;7.030;2023-02-20T12:24:39;101219.25;;;8.50;73.70
32081;BME280;18593;51.426;7.030;2023-02-20T12:27:22;101243.81;;;8.52;73.49
32081;BME280;18593;51.426;7.030;2023-02-20T12:29:58;101226.84;;;8.54;73.47
32081;BME280;18593;51.426;7.030;2023-02-20T12:32:34;101211.84;;;8.61;73.39
32081;BME280;18593;51.426;7.030;2023-02-20T12:38:17;101210.22;;;8.60;73.24
32081;BME280;18593;51.426;7.030;2023-02-20T12:40:59;101212.03;;;8.59;73.41
32081;BME280;18593;51.426;7.030;2023-02-20T12:43:34;101198.72;;;8.44;73.81
32081;BME280;18593;51.426;7.030;2023-02-20T12:46:06;101192.19;;;8.47;74.19
32081;BME280;18593;51.426;7.030;2023-02-20T12:48:40;101188.53;;;8.48;74.33
32081;BME280;18593;51.426;7.030;2023-02-20T12:51:21;101183.34;;;8.55;74.39
32081;BME280;18593;51.426;7.030;2023-02-20T12:53:55;101170.34;;;8.60;74.13
32081;BME280;18593;51.426;7.030;2023-02-20T12:56:56;101167.84;;;8.58;74.21
32081;BME280;18593;51.426;7.030;2023-02-20T12:59:29;101176.19;;;8.55;73.96
32081;BME280;18593;51.426;7.030;2023-02-20T13:02:00;101173.53;;;8.55;74.09
32081;BME280;18593;51.426;7.030;2023-02-20T13:04:31;101153.91;;;8.56;74.35
32081;BME280;18593;51.426;7.030;2023-02-20T13:07:13;101122.75;;;8.50;74.46
32081;BME280;18593;51.426;7.030;2023-02-20T13:09:44;101119.88;;;8.51;74.63
32081;BME280;18593;51.426;7.030;2023-02-20T13:12:19;101133.81;;;8.54;74.73
32081;BME280;18593;51.426;7.030;2023-02-20T13:14:57;101144.44;;;8.54;74.88
32081;BME280;18593;51.426;7.030;2023-02-20T13:17:31;101135.09;;;8.58;74.67
32081;BME280;18593;51.426;7.030;2023-02-20T13:20:08;101126.59;;;8.62;74.32
32081;BME280;18593;51.426;7.030;2023-02-20T13:22:37;101101.84;;;8.62;74.54
32081;BME280;18593;51.426;7.030;2023-02-20T13:25:38;101104.31;;;8.63;74.76
32081;BME280;18593;51.426;7.030;2023-02-20T13:31:39;101098.34;;;8.61;74.44
32081;BME280;18593;51.426;7.030;2023-02-20T13:34:28;101109.72;;;8.55;74.97
32081;BME280;18593;51.426;7.030;2023-02-20T13:36:56;101108.63;;;8.49;75.43
32081;BME280;18593;51.426;7.030;2023-02-20T13:39:42;101118.41;;;8.49;75.47
32081;BME280;18593;51.426;7.030;2023-02-20T13:42:32;101137.75;;;8.58;75.71
32081;BME280;18593;51.426;7.030;2023-02-20T13:45:00;101133.38;;;8.65;75.19
32081;BME280;18593;51.426;7.030;2023-02-20T13:47:32;101122.75;;;8.65;75.13
32081;BME280;18593;51.426;7.030;2023-02-20T13:50:01;101118.59;;;8.62;75.12
32081;BME280;18593;51.426;7.030;2023-02-20T13:52:36;101133.75;;;8.62;75.14
32081;BME280;18593;51.426;7.030;2023-02-20T13:55:15;101123.94;;;8.62;74.88
32081;BME280;18593;51.426;7.030;2023-02-20T13:57:45;101132.38;;;8.66;74.70
32081;BME280;18593;51.426;7.030;2023-02-20T14:00:20;101111.94;;;8.66;75.08
32081;BME280;18593;51.426;7.030;2023-02-20T14:02:48;101119.72;;;8.68;75.28
32081;BME280;18593;51.426;7.030;2023-02-20T14:05:18;101121.81;;;8.72;75.13
32081;BME280;18593;51.426;7.030;2023-02-20T14:07:45;101119.09;;;8.66;74.96
32081;BME280;18593;51.426;7.030;2023-02-20T14:10:22;101108.63;;;8.64;75.51
32081;BME280;18593;51.426;7.030;2023-02-20T14:12:56;101110.28;;;8.65;75.48
32081;BME280;18593;51.426;7.030;2023-02-20T14:15:24;101104.56;;;8.68;75.57
32081;BME280;18593;51.426;7.030;2023-02-20T14:17:52;101101.91;;;8.68;75.73
32081;BME280;18593;51.426;7.030;2023-02-20T14:20:22;101098.53;;;8.60;75.77
32081;BME280;18593;51.426;7.030;2023-02-20T14:23:05;101100.00;;;8.62;75.99
32081;BME280;18593;51.426;7.030;2023-02-20T14:25:33;101107.63;;;8.65;75.68
32081;BME280;18593;51.426;7.030;2023-02-20T14:28:06;101095.16;;;8.66;75.85
32081;BME280;18593;51.426;7.030;2023-02-20T14:30:34;101082.47;;;8.68;75.67